Nearby METAR Reports

 

EKAH - Tirstrup (civ/Mi, Denmark
Distance from station: SSW 25km
Updated: 01/06/2020 02:50
Clear
Clear
 Wind from calm
Wind: Calm
Temperature: 9°C
Dew Point: 7°C
Humidity: 87%
Barometer: 1029 hPa
Clouds: Clear
Visibility: 10 km
2020/06/01 00:50 EKAH 010050Z AUTO 00000KT 9999NDV NCD 09/07 Q1029
EKYT - Alborg, Denmark
Distance from station: NW 91km
Updated: 01/06/2020 02:50
Clear
Clear
 Wind from ENE
Wind: ENE 7 km/h
Temperature: 13°C
Dew Point: 8°C
Humidity: 72%
Barometer: 1029 hPa
Clouds: Clear
Visibility: 10 km
2020/06/01 00:50 EKYT 010050Z AUTO 07004KT 9999 NCD 13/08 Q1029
EKKA - Karup (dan-Afb), Denmark
Distance from station: W 107km
Updated: 01/06/2020 02:50
Clear
Clear
 Wind from calm
Wind: Calm
Temperature: 10°C
Dew Point: 7°C
Humidity: 82%
Barometer: 1028 hPa
Clouds: Clear
Visibility: 10 km
2020/06/01 00:50 EKKA 010050Z AUTO 00000KT 9999 NCD 10/07 Q1028
 
EKOD - Odense/Beldringe, Denmark
Distance from station: SSW 116km
Updated: 31/05/2020 17:50
NOT Current
Clear
Clear
 Wind from NE
Wind: NE 22 km/h
Temperature: 19°C
Dew Point: 8°C
Humidity: 49%
Barometer: 1027 hPa
Summary: Clear
Visibility: greater than 10 km
2020/05/31 15:50 EKOD 311550Z 05012KT 010V070 CAVOK 19/08 Q1027
EKBI - Billund Airport, Denmark
Distance from station: SW 134km
Updated: 01/06/2020 02:50
Clear
Clear
 Wind from ENE
Wind: ENE 2 km/h
Temperature: 6°C
Dew Point: 6°C
Humidity: 100%
Barometer: 1028 hPa
Clouds: Clear
Visibility: 10 km
2020/06/01 00:50 EKBI 010050Z AUTO 06001KT 9999 NCD 06/06 Q1028
EKCH - Copenhagen/Kastr, Denmark
Distance from station: SE 148km
Updated: 01/06/2020 02:50
Clear
Clear
 Wind from calm
Wind: Calm
Temperature: 12°C
Dew Point: 8°C
Humidity: 77%
Barometer: 1028 hPa
Clouds: Clear
Visibility: 10 km
2020/06/01 00:50 EKCH 010050Z AUTO 00000KT 9999 NCD 12/08 Q1028 NOSIG